Time;durP1;ratioP1;P1;durP2;ratioP2;P2;SDS_P1;SDS_P2;PMS_P1;PMS_P2;Temp;Humidity;BMP_temperature;BMP_pressure;BME280_temperature;BME280_humidity;BME280_pressure;Samples;Min_cycle;Max_cycle;Signal;HPM_P1;HPM_P2
2022/01/09 00:02:06;;;;;;;0.98;0.50;;;5.70;99.90;;;;;;5017839;28;20248;-68
2022/01/09 00:04:34;;;;;;;0.65;0.43;;;5.60;99.90;;;;;;5029026;28;20243;-67
2022/01/09 00:07:03;;;;;;;0.50;0.32;;;5.70;99.90;;;;;;5028837;28;20216;-66
2022/01/09 00:09:32;;;;;;;0.52;0.40;;;5.70;99.90;;;;;;5023134;28;20725;-68
2022/01/09 00:12:01;;;;;;;0.73;0.40;;;5.70;99.90;;;;;;5025580;28;20278;-67
2022/01/09 00:14:29;;;;;;;0.52;0.40;;;5.70;99.90;;;;;;5028798;28;20544;-65
2022/01/09 00:16:59;;;;;;;0.60;0.52;;;5.60;99.90;;;;;;5023206;28;20308;-65
2022/01/09 00:19:28;;;;;;;0.70;0.50;;;5.70;99.90;;;;;;5028788;28;20793;-66
2022/01/09 00:21:56;;;;;;;0.55;0.50;;;5.60;99.90;;;;;;5027954;28;20244;-67
2022/01/09 00:24:24;;;;;;;0.52;0.43;;;5.60;99.90;;;;;;5011215;28;20236;-68
2022/01/09 00:26:52;;;;;;;0.70;0.50;;;5.60;99.90;;;;;;5024347;28;20225;-67
2022/01/09 00:29:21;;;;;;;0.73;0.45;;;5.70;99.90;;;;;;5027359;28;20691;-66
2022/01/09 00:31:49;;;;;;;0.60;0.40;;;5.70;99.90;;;;;;5023166;28;20304;-67
2022/01/09 00:34:17;;;;;;;0.85;0.60;;;5.70;99.90;;;;;;5028475;28;20204;-68
2022/01/09 00:36:45;;;;;;;0.50;0.40;;;5.70;99.90;;;;;;5027746;28;20278;-67
2022/01/09 00:39:13;;;;;;;0.60;0.40;;;5.70;99.90;;;;;;5022404;28;20206;-65
2022/01/09 00:41:42;;;;;;;0.70;0.40;;;5.70;99.90;;;;;;5028275;28;20271;-67
2022/01/09 00:44:10;;;;;;;0.40;0.30;;;5.70;99.90;;;;;;5028201;28;20193;-68
2022/01/09 00:46:39;;;;;;;0.80;0.40;;;5.70;99.90;;;;;;5022648;28;20221;-68
2022/01/09 00:49:07;;;;;;;0.93;0.40;;;5.70;99.90;;;;;;5028140;28;20239;-66
2022/01/09 00:51:35;;;;;;;0.65;0.40;;;5.70;99.90;;;;;;5027714;28;20217;-67
2022/01/09 00:54:05;;;;;;;0.65;0.50;;;5.70;99.90;;;;;;5027981;28;20266;-68
2022/01/09 00:56:33;;;;;;;0.60;0.40;;;5.70;99.90;;;;;;5014922;28;20611;-67
2022/01/09 00:59:01;;;;;;;0.63;0.32;;;5.70;99.90;;;;;;5024900;28;20533;-67
2022/01/09 01:01:29;;;;;;;0.60;0.50;;;5.70;99.90;;;;;;5027104;28;20701;-66
2022/01/09 01:03:59;;;;;;;0.80;0.40;;;5.70;99.90;;;;;;5027901;28;20196;-67
2022/01/09 01:06:27;;;;;;;0.60;0.40;;;5.70;99.90;;;;;;5029225;28;20267;-67
2022/01/09 01:08:56;;;;;;;0.50;0.38;;;5.70;99.90;;;;;;5027960;28;20193;-66
2022/01/09 01:11:24;;;;;;;0.50;0.40;;;5.70;99.90;;;;;;5019843;28;20244;-65
2022/01/09 01:13:52;;;;;;;0.50;0.43;;;5.70;99.90;;;;;;5026721;28;20201;-67
2022/01/09 01:16:20;;;;;;;0.90;0.47;;;5.70;99.90;;;;;;5018637;28;20741;-66
2022/01/09 01:18:48;;;;;;;0.40;0.30;;;5.70;99.90;;;;;;5023605;28;20675;-67
2022/01/09 01:21:18;;;;;;;0.80;0.38;;;5.70;99.90;;;;;;5027164;28;20217;-67
2022/01/09 01:23:46;;;;;;;0.50;0.30;;;5.70;99.90;;;;;;5021649;28;20252;-68
2022/01/09 01:26:14;;;;;;;0.50;0.32;;;5.70;99.90;;;;;;5018221;28;20229;-66
2022/01/09 01:28:42;;;;;;;0.80;0.40;;;5.70;99.90;;;;;;5027513;28;20189;-65
2022/01/09 01:31:11;;;;;;;0.65;0.40;;;5.70;99.90;;;;;;5021898;28;20267;-67
2022/01/09 01:33:39;;;;;;;0.55;0.50;;;5.70;99.90;;;;;;5027808;28;20255;-65
2022/01/09 01:36:07;;;;;;;1.20;0.50;;;5.70;99.90;;;;;;5026859;28;20634;-68
2022/01/09 01:38:36;;;;;;;0.75;0.40;;;5.70;99.90;;;;;;5027122;28;20201;-66
2022/01/09 01:41:04;;;;;;;0.70;0.30;;;5.70;99.90;;;;;;5027331;28;20228;-67
2022/01/09 01:43:32;;;;;;;0.50;0.32;;;5.70;99.90;;;;;;5011979;28;20201;-66
2022/01/09 01:46:02;;;;;;;1.10;0.68;;;5.70;99.90;;;;;;5026064;28;20217;-67
2022/01/09 01:48:30;;;;;;;1.35;0.55;;;5.70;99.90;;;;;;5027992;28;20251;-67
2022/01/09 01:50:58;;;;;;;0.82;0.40;;;5.70;99.90;;;;;;5027269;28;20599;-67
2022/01/09 01:53:27;;;;;;;0.95;0.50;;;5.70;99.90;;;;;;5027828;28;20189;-66
2022/01/09 01:55:57;;;;;;;0.50;0.30;;;5.70;99.90;;;;;;5023915;28;20227;-67
2022/01/09 01:58:27;;;;;;;0.70;0.55;;;5.70;99.90;;;;;;5027362;28;20240;-67
2022/01/09 02:00:55;;;;;;;0.70;0.50;;;5.70;99.90;;;;;;5022470;28;20190;-67
2022/01/09 02:03:23;;;;;;;1.35;0.50;;;5.70;99.90;;;;;;5026134;28;20236;-67
2022/01/09 02:05:51;;;;;;;1.15;0.70;;;5.70;99.90;;;;;;5029482;28;20213;-67
2022/01/09 02:08:20;;;;;;;0.57;0.30;;;5.70;99.90;;;;;;5027713;28;20660;-68
2022/01/09 02:10:48;;;;;;;1.10;0.43;;;5.70;99.90;;;;;;5027924;28;20193;-66
2022/01/09 02:13:19;;;;;;;0.93;0.57;;;5.70;99.90;;;;;;5029570;28;20271;-68
2022/01/09 02:15:48;;;;;;;1.50;0.85;;;5.70;99.90;;;;;;5029171;28;20264;-66
2022/01/09 02:18:18;;;;;;;1.55;0.50;;;5.70;99.90;;;;;;5029678;28;20213;-68
2022/01/09 02:20:50;;;;;;;1.48;1.10;;;5.70;99.90;;;;;;5030948;28;20177;-67
2022/01/09 02:23:19;;;;;;;0.90;0.70;;;5.70;99.90;;;;;;5031134;28;20190;-68
2022/01/09 02:25:48;;;;;;;1.90;0.80;;;5.70;99.90;;;;;;5022082;28;20287;-68
2022/01/09 02:28:18;;;;;;;2.55;0.90;;;5.70;99.90;;;;;;5030497;28;20200;-67
2022/01/09 02:30:49;;;;;;;0.93;0.73;;;5.70;99.90;;;;;;5027477;28;20194;-67
2022/01/09 02:33:18;;;;;;;0.95;0.65;;;5.70;99.90;;;;;;5029897;28;20197;-66
2022/01/09 02:35:51;;;;;;;2.40;0.90;;;5.70;99.90;;;;;;5031033;28;20274;-66
2022/01/09 02:38:20;;;;;;;0.65;0.65;;;5.70;99.90;;;;;;5030836;28;20206;-67
2022/01/09 02:40:51;;;;;;;1.92;0.68;;;5.70;99.90;;;;;;5024752;28;20220;-67
2022/01/09 02:43:20;;;;;;;0.60;0.43;;;5.70;99.90;;;;;;5030487;28;20721;-67
2022/01/09 02:45:54;;;;;;;1.73;0.80;;;5.70;99.90;;;;;;5026398;28;20584;-67
2022/01/09 02:48:22;;;;;;;1.52;1.00;;;5.70;99.90;;;;;;5022628;28;20197;-66
2022/01/09 02:51:01;;;;;;;1.00;0.60;;;5.70;99.90;;;;;;5030330;28;20185;-67
2022/01/09 02:53:33;;;;;;;1.73;0.77;;;5.70;99.90;;;;;;5015261;28;20197;-65
2022/01/09 02:56:04;;;;;;;0.82;0.60;;;5.70;99.90;;;;;;5025960;28;20244;-65
2022/01/09 02:58:32;;;;;;;1.45;0.80;;;5.70;99.90;;;;;;5028684;28;20221;-67
2022/01/09 03:01:01;;;;;;;2.00;0.80;;;5.70;99.90;;;;;;5024685;28;20217;-66
2022/01/09 03:03:29;;;;;;;1.45;0.70;;;5.70;99.90;;;;;;5030453;28;20248;-66
2022/01/09 03:05:59;;;;;;;4.93;1.35;;;5.70;99.90;;;;;;5028171;28;20228;-67
2022/01/09 03:08:27;;;;;;;1.40;1.30;;;5.70;99.90;;;;;;5030178;28;20197;-65
2022/01/09 03:10:56;;;;;;;0.80;0.80;;;5.70;99.90;;;;;;5022125;28;20697;-67
2022/01/09 03:13:24;;;;;;;1.55;0.90;;;5.70;99.90;;;;;;5029852;28;20723;-67
2022/01/09 03:15:52;;;;;;;2.47;1.30;;;5.70;99.90;;;;;;5024692;28;20250;-67
2022/01/09 03:18:20;;;;;;;1.70;1.30;;;5.70;99.90;;;;;;5021382;28;20212;-66
2022/01/09 03:20:48;;;;;;;1.17;0.60;;;5.70;99.90;;;;;;5029940;28;20271;-66
2022/01/09 03:23:18;;;;;;;2.85;0.90;;;5.70;99.90;;;;;;5029967;28;20667;-65
2022/01/09 03:25:46;;;;;;;3.65;1.42;;;5.70;99.90;;;;;;5021342;28;20241;-65
2022/01/09 03:28:14;;;;;;;3.33;0.90;;;5.70;99.90;;;;;;5029469;28;20221;-67
2022/01/09 03:30:42;;;;;;;2.05;1.10;;;5.70;99.90;;;;;;5025174;28;20198;-66
2022/01/09 03:33:10;;;;;;;3.83;1.35;;;5.70;99.90;;;;;;5027672;28;20569;-67
2022/01/09 03:35:39;;;;;;;3.97;1.83;;;5.70;99.90;;;;;;5029465;28;20217;-67
2022/01/09 03:38:07;;;;;;;3.63;1.20;;;5.70;99.90;;;;;;5029126;28;20225;-66
2022/01/09 03:40:37;;;;;;;4.45;1.73;;;5.70;99.90;;;;;;5021132;28;20660;-68
2022/01/09 03:43:05;;;;;;;3.20;1.52;;;5.70;99.90;;;;;;5026660;28;20221;-66
2022/01/09 03:45:33;;;;;;;2.35;1.25;;;5.70;99.90;;;;;;5027438;28;20527;-67
2022/01/09 03:48:01;;;;;;;5.05;2.10;;;5.70;99.90;;;;;;5018132;28;20687;-67
2022/01/09 03:50:29;;;;;;;3.53;1.20;;;5.70;99.90;;;;;;5028122;28;20189;-67
2022/01/09 03:52:57;;;;;;;6.45;1.60;;;5.70;99.90;;;;;;5028606;28;20229;-68
2022/01/09 03:55:26;;;;;;;6.00;1.65;;;5.70;99.90;;;;;;5028397;28;20243;-67
2022/01/09 03:57:55;;;;;;;3.45;1.55;;;5.70;99.90;;;;;;5028805;28;20229;-67
2022/01/09 04:00:25;;;;;;;3.40;1.48;;;5.70;99.90;;;;;;5028449;28;20348;-66
2022/01/09 04:02:54;;;;;;;2.78;1.48;;;5.70;99.90;;;;;;5024139;28;20282;-66
2022/01/09 04:05:23;;;;;;;7.15;1.90;;;5.70;99.90;;;;;;5028899;28;20318;-67
2022/01/09 04:07:52;;;;;;;7.90;2.15;;;5.70;99.90;;;;;;5027790;28;20241;-67
2022/01/09 04:10:42;;;;;;;8.68;1.63;;;5.70;99.90;;;;;;5026396;28;20200;-68
2022/01/09 04:13:14;;;;;;;8.02;2.33;;;5.70;99.90;;;;;;5028184;28;20594;-67
2022/01/09 04:15:47;;;;;;;6.95;1.73;;;5.70;99.90;;;;;;5026046;28;20635;-68
2022/01/09 04:18:16;;;;;;;5.53;1.63;;;5.70;99.90;;;;;;5019941;28;20221;-67
2022/01/09 04:20:44;;;;;;;5.65;1.85;;;5.70;99.90;;;;;;5028989;28;20286;-65
2022/01/09 04:23:13;;;;;;;6.13;2.00;;;5.70;99.90;;;;;;5028523;28;20225;-67
2022/01/09 04:25:45;;;;;;;5.88;1.80;;;5.70;99.90;;;;;;5018289;28;20217;-67
2022/01/09 04:28:16;;;;;;;3.60;1.95;;;5.70;99.90;;;;;;5028493;28;20223;-67
2022/01/09 04:30:45;;;;;;;3.35;1.83;;;5.70;99.90;;;;;;5027861;28;20268;-66
2022/01/09 04:33:13;;;;;;;4.75;1.73;;;5.70;99.90;;;;;;5028043;28;20724;-68
2022/01/09 04:35:42;;;;;;;5.40;2.55;;;5.70;99.90;;;;;;5028191;28;20304;-67
2022/01/09 04:38:10;;;;;;;4.68;1.80;;;5.70;99.90;;;;;;5027904;28;20663;-67
2022/01/09 04:40:38;;;;;;;6.22;1.65;;;5.70;99.90;;;;;;5021732;28;20220;-67
2022/01/09 04:43:08;;;;;;;3.75;2.20;;;5.70;99.90;;;;;;5027836;28;20602;-68
2022/01/09 04:45:38;;;;;;;3.85;1.83;;;5.70;99.90;;;;;;5025816;28;20205;-66
2022/01/09 04:48:09;;;;;;;8.50;2.20;;;5.70;99.90;;;;;;5025625;28;20251;-66
2022/01/09 04:50:38;;;;;;;3.55;1.92;;;5.70;99.90;;;;;;5028566;28;20181;-67
2022/01/09 04:53:09;;;;;;;2.20;1.70;;;5.70;99.90;;;;;;5027173;28;20229;-66
2022/01/09 04:55:39;;;;;;;3.70;1.83;;;5.70;99.90;;;;;;5023826;28;20756;-67
2022/01/09 04:58:07;;;;;;;2.60;1.30;;;5.70;99.90;;;;;;5027540;28;20224;-66
2022/01/09 05:00:35;;;;;;;5.85;2.20;;;5.70;99.90;;;;;;5026292;28;20248;-66
2022/01/09 05:03:05;;;;;;;7.47;2.25;;;5.70;99.90;;;;;;5024675;28;20216;-68
2022/01/09 05:05:33;;;;;;;8.43;2.45;;;5.70;99.90;;;;;;5027856;28;20275;-66
2022/01/09 05:08:01;;;;;;;7.43;2.30;;;5.70;99.90;;;;;;5027510;28;20216;-70
2022/01/09 05:10:29;;;;;;;5.10;1.67;;;5.70;99.90;;;;;;5023472;28;20675;-67
2022/01/09 05:12:57;;;;;;;6.35;2.17;;;5.70;99.90;;;;;;5027244;28;20296;-66
2022/01/09 05:15:25;;;;;;;9.05;1.95;;;5.70;99.90;;;;;;5026811;28;20318;-69
2022/01/09 05:17:58;;;;;;;9.57;2.45;;;5.70;99.90;;;;;;5015281;28;20298;-66
2022/01/09 05:20:31;;;;;;;3.90;2.15;;;5.70;99.90;;;;;;5026344;28;20212;-67
2022/01/09 05:23:00;;;;;;;5.28;2.42;;;5.70;99.90;;;;;;5025765;28;20225;-67
2022/01/09 05:25:28;;;;;;;3.75;2.03;;;5.70;99.90;;;;;;5011677;28;20689;-67
2022/01/09 05:27:56;;;;;;;5.22;1.60;;;5.70;99.90;;;;;;5027420;28;20217;-66
2022/01/09 05:30:24;;;;;;;3.67;1.60;;;5.70;99.90;;;;;;5027067;28;20886;-67
2022/01/09 05:32:52;;;;;;;4.05;1.98;;;5.70;99.90;;;;;;5027401;28;20658;-66
2022/01/09 05:35:20;;;;;;;8.63;2.65;;;5.70;99.90;;;;;;5027888;28;20209;-67
2022/01/09 05:37:50;;;;;;;6.10;1.60;;;5.70;99.90;;;;;;5026140;28;20220;-67
2022/01/09 05:40:19;;;;;;;6.53;1.85;;;5.70;99.90;;;;;;5024837;28;20274;-68
2022/01/09 05:42:47;;;;;;;3.95;1.70;;;5.70;99.90;;;;;;5031538;28;20220;-65
2022/01/09 05:45:17;;;;;;;7.30;2.10;;;5.70;99.90;;;;;;5031403;28;20327;-68
2022/01/09 05:47:46;;;;;;;6.43;2.50;;;5.70;99.90;;;;;;5018384;28;20223;-68
2022/01/09 05:50:15;;;;;;;7.07;2.65;;;5.70;99.90;;;;;;5030842;28;20360;-67
2022/01/09 05:52:43;;;;;;;4.32;2.17;;;5.70;99.90;;;;;;5031331;28;20221;-68
2022/01/09 05:55:12;;;;;;;11.70;2.53;;;5.70;99.90;;;;;;5026443;28;20186;-66
2022/01/09 05:57:40;;;;;;;7.43;2.65;;;5.70;99.90;;;;;;5030977;28;20229;-67
2022/01/09 06:00:09;;;;;;;6.13;2.10;;;5.70;99.90;;;;;;5031394;28;20682;-67
2022/01/09 06:02:45;;;;;;;4.03;2.47;;;5.70;99.90;;;;;;5025075;28;20278;-67
2022/01/09 06:05:14;;;;;;;6.55;1.90;;;5.70;99.90;;;;;;5031032;28;20207;-67
2022/01/09 06:07:43;;;;;;;5.00;2.53;;;5.70;99.90;;;;;;5031022;28;20619;-67
2022/01/09 06:10:13;;;;;;;4.80;2.10;;;5.70;99.90;;;;;;5027778;28;20721;-66
2022/01/09 06:12:41;;;;;;;2.45;1.70;;;5.70;99.90;;;;;;5025605;28;20224;-66
2022/01/09 06:15:10;;;;;;;3.22;2.05;;;5.70;99.90;;;;;;5029643;28;20750;-67
2022/01/09 06:17:39;;;;;;;5.85;2.30;;;5.70;99.90;;;;;;5030059;28;20221;-67
2022/01/09 06:20:09;;;;;;;4.50;2.22;;;5.70;99.90;;;;;;5031086;28;20288;-66
2022/01/09 06:22:37;;;;;;;4.40;2.35;;;5.70;99.90;;;;;;5030251;28;20304;-67
2022/01/09 06:25:06;;;;;;;4.97;1.85;;;5.70;99.90;;;;;;5023100;28;20236;-66
2022/01/09 06:27:36;;;;;;;3.88;2.38;;;5.70;99.90;;;;;;5030481;28;20729;-67
2022/01/09 06:30:05;;;;;;;6.22;1.90;;;5.70;99.90;;;;;;5029502;28;20193;-66
2022/01/09 06:32:34;;;;;;;4.93;2.20;;;5.70;99.90;;;;;;5016975;28;20217;-65
2022/01/09 06:35:02;;;;;;;5.97;1.88;;;5.70;99.90;;;;;;5030511;28;20193;-68
2022/01/09 06:37:31;;;;;;;5.43;1.90;;;5.70;99.90;;;;;;5030482;28;20564;-66
2022/01/09 06:39:59;;;;;;;5.43;2.30;;;5.70;99.90;;;;;;5030615;28;20193;-67
2022/01/09 06:42:27;;;;;;;5.25;1.77;;;5.70;99.90;;;;;;5014425;28;20291;-66
2022/01/09 06:44:56;;;;;;;7.18;2.15;;;5.70;99.90;;;;;;5023568;28;20655;-67
2022/01/09 06:47:24;;;;;;;7.32;1.85;;;5.70;99.90;;;;;;5024669;28;20252;-67
2022/01/09 06:49:52;;;;;;;6.20;2.15;;;5.70;99.90;;;;;;5030147;28;20655;-66
2022/01/09 06:52:21;;;;;;;5.10;2.10;;;5.70;99.90;;;;;;5029598;28;20229;-66
2022/01/09 06:54:53;;;;;;;6.35;1.90;;;5.70;99.90;;;;;;5026697;28;20212;-68
2022/01/09 06:57:22;;;;;;;6.43;2.47;;;5.70;99.90;;;;;;5029847;28;20753;-68
2022/01/09 06:59:50;;;;;;;2.65;1.70;;;5.70;99.90;;;;;;5030159;28;20551;-66
2022/01/09 07:02:20;;;;;;;4.20;1.60;;;5.70;99.90;;;;;;5017005;28;20230;-67
2022/01/09 07:04:48;;;;;;;6.03;2.10;;;5.70;99.90;;;;;;5030733;28;20742;-67
2022/01/09 07:07:16;;;;;;;4.03;2.00;;;5.70;99.90;;;;;;5030153;28;20717;-68
2022/01/09 07:09:44;;;;;;;3.65;1.63;;;5.70;99.90;;;;;;5030361;28;20201;-66
2022/01/09 07:12:12;;;;;;;2.88;1.67;;;5.70;99.90;;;;;;5028899;28;20300;-67
2022/01/09 07:14:40;;;;;;;3.42;2.05;;;5.70;99.90;;;;;;5030129;28;20200;-67
2022/01/09 07:17:10;;;;;;;2.65;1.65;;;5.70;99.90;;;;;;5028266;28;20670;-66
2022/01/09 07:19:40;;;;;;;2.58;1.40;;;5.70;99.90;;;;;;5030220;28;20190;-67
2022/01/09 07:22:08;;;;;;;3.28;1.75;;;5.70;99.90;;;;;;5029744;28;20241;-67
2022/01/09 07:24:36;;;;;;;3.22;1.83;;;5.70;99.90;;;;;;5022565;28;20193;-67
2022/01/09 07:27:05;;;;;;;5.32;2.10;;;5.70;99.90;;;;;;5029518;28;20229;-67
2022/01/09 07:29:34;;;;;;;4.80;2.30;;;5.70;99.90;;;;;;5030224;28;20539;-67
2022/01/09 07:32:02;;;;;;;3.72;2.20;;;5.70;99.90;;;;;;5024552;28;20217;-67
2022/01/09 07:34:30;;;;;;;4.22;2.30;;;5.70;99.90;;;;;;5029670;28;20189;-67
2022/01/09 07:37:00;;;;;;;7.80;2.05;;;5.70;99.90;;;;;;5028854;28;20225;-66
2022/01/09 07:39:29;;;;;;;4.47;2.70;;;5.70;99.90;;;;;;5028397;28;20204;-68
2022/01/09 07:41:57;;;;;;;4.28;2.03;;;5.70;99.90;;;;;;5029155;28;20496;-67
2022/01/09 07:44:28;;;;;;;2.67;1.98;;;5.70;99.90;;;;;;5028681;28;20228;-67
2022/01/09 07:46:56;;;;;;;5.63;1.77;;;5.70;99.90;;;;;;5026055;28;20247;-67
2022/01/09 07:49:24;;;;;;;5.68;2.00;;;5.70;99.90;;;;;;5029715;28;20191;-66
2022/01/09 07:51:53;;;;;;;3.40;2.03;;;5.70;99.90;;;;;;5028799;28;20683;-67
2022/01/09 07:54:23;;;;;;;1.83;1.20;;;5.70;99.90;;;;;;5029171;28;20239;-66
2022/01/09 07:56:51;;;;;;;5.97;1.75;;;5.70;99.90;;;;;;5027941;28;20278;-67
2022/01/09 07:59:19;;;;;;;2.45;2.15;;;5.70;99.90;;;;;;5020260;28;20204;-67
2022/01/09 08:01:49;;;;;;;1.83;1.42;;;5.70;99.90;;;;;;5016672;28;20330;-66
2022/01/09 08:04:17;;;;;;;3.90;2.08;;;5.70;99.90;;;;;;5029233;28;20196;-66
2022/01/09 08:06:46;;;;;;;3.55;1.75;;;5.70;99.90;;;;;;5028362;28;20508;-67
2022/01/09 08:09:14;;;;;;;4.30;1.60;;;5.70;99.90;;;;;;5027176;28;20200;-66
2022/01/09 08:11:43;;;;;;;4.07;1.80;;;5.70;99.90;;;;;;5014684;28;20685;-67
2022/01/09 08:14:11;;;;;;;5.32;2.05;;;5.70;99.90;;;;;;5028371;28;20224;-67
2022/01/09 08:16:39;;;;;;;3.50;1.73;;;5.70;99.90;;;;;;5025136;28;20256;-67
2022/01/09 08:19:07;;;;;;;3.45;1.80;;;5.70;99.90;;;;;;5029031;28;20192;-68
2022/01/09 08:21:36;;;;;;;2.22;2.03;;;5.70;99.90;;;;;;5028314;28;20229;-67
2022/01/09 08:24:04;;;;;;;4.38;2.10;;;5.70;99.90;;;;;;5021672;28;20692;-65
2022/01/09 08:26:33;;;;;;;6.55;1.98;;;5.70;99.90;;;;;;5015667;28;20235;-68
2022/01/09 08:29:02;;;;;;;4.97;2.20;;;5.70;99.90;;;;;;5028885;28;20182;-67
2022/01/09 08:31:30;;;;;;;7.63;2.50;;;5.70;99.90;;;;;;5027798;28;20225;-67
2022/01/09 08:33:58;;;;;;;2.95;1.60;;;5.70;99.90;;;;;;5029032;28;20197;-67
2022/01/09 08:36:30;;;;;;;3.08;2.25;;;5.70;99.90;;;;;;5028495;28;20224;-68
2022/01/09 08:38:58;;;;;;;3.72;1.40;;;5.70;99.90;;;;;;5028800;28;20797;-67
2022/01/09 08:41:26;;;;;;;7.20;2.80;;;5.70;99.90;;;;;;5014346;28;20233;-65
2022/01/09 08:43:54;;;;;;;2.83;2.00;;;5.70;99.90;;;;;;5009162;28;20198;-65
2022/01/09 08:46:24;;;;;;;4.28;1.90;;;5.70;99.90;;;;;;5015719;28;20307;-67
2022/01/09 08:48:52;;;;;;;2.60;2.40;;;5.70;99.90;;;;;;5028707;28;20228;-67
2022/01/09 08:51:21;;;;;;;3.55;1.65;;;5.70;99.90;;;;;;5028032;28;20275;-66
2022/01/09 08:53:50;;;;;;;5.35;2.05;;;5.70;99.90;;;;;;5028511;28;20251;-69
2022/01/09 08:56:19;;;;;;;4.32;1.98;;;5.70;99.90;;;;;;5013842;28;20253;-69
2022/01/09 08:58:48;;;;;;;3.80;1.77;;;5.70;99.90;;;;;;5014891;28;20196;-67
2022/01/09 09:01:37;;;;;;;3.92;2.00;;;5.70;99.90;;;;;;5027030;28;20330;-68
2022/01/09 09:04:06;;;;;;;3.13;2.10;;;5.70;99.90;;;;;;5027878;28;20251;-68
2022/01/09 09:06:36;;;;;;;2.72;1.92;;;5.70;99.90;;;;;;5021754;28;20217;-67
2022/01/09 09:09:04;;;;;;;5.25;2.05;;;5.70;99.90;;;;;;5010766;28;20281;-66
2022/01/09 09:11:35;;;;;;;6.45;1.90;;;5.70;99.90;;;;;;5006931;28;20218;-68
2022/01/09 09:14:05;;;;;;;6.95;2.03;;;5.70;99.90;;;;;;5009784;28;20193;-67
2022/01/09 09:16:34;;;;;;;2.25;1.65;;;5.70;99.90;;;;;;5008296;28;20761;-67
2022/01/09 09:19:03;;;;;;;2.83;1.98;;;5.70;99.90;;;;;;5016961;28;20717;-66
2022/01/09 09:21:31;;;;;;;4.43;1.85;;;5.80;99.90;;;;;;5026648;28;20220;-67
2022/01/09 09:23:59;;;;;;;4.22;1.70;;;5.70;99.90;;;;;;5026298;28;20607;-67
2022/01/09 09:26:27;;;;;;;3.65;2.10;;;5.70;99.90;;;;;;5027808;28;20725;-66
2022/01/09 09:28:55;;;;;;;3.35;2.42;;;5.80;99.90;;;;;;5027942;28;20200;-67
2022/01/09 09:31:25;;;;;;;4.63;1.80;;;5.80;99.90;;;;;;5026044;28;20221;-65
2022/01/09 09:33:53;;;;;;;4.80;1.80;;;5.80;99.90;;;;;;5028067;28;20197;-65
2022/01/09 09:36:24;;;;;;;2.63;1.75;;;5.80;99.90;;;;;;5027422;28;20252;-67
2022/01/09 09:38:52;;;;;;;9.52;2.40;;;5.80;99.90;;;;;;5024834;28;20696;-68
2022/01/09 09:41:23;;;;;;;6.90;2.35;;;5.80;99.90;;;;;;5023860;28;20677;-67
2022/01/09 09:43:52;;;;;;;3.17;1.50;;;5.80;99.90;;;;;;5022221;28;20247;-66
2022/01/09 09:46:22;;;;;;;3.78;1.80;;;5.80;99.90;;;;;;5018951;28;20221;-68
2022/01/09 09:48:51;;;;;;;3.05;1.90;;;5.80;99.90;;;;;;5027807;28;20251;-67
2022/01/09 09:51:19;;;;;;;3.00;2.03;;;5.80;99.90;;;;;;5023426;28;20243;-66
2022/01/09 09:53:48;;;;;;;3.17;1.90;;;5.80;99.90;;;;;;5015875;28;20181;-67
2022/01/09 09:56:16;;;;;;;6.80;2.20;;;5.80;99.90;;;;;;5004534;28;20298;-66
2022/01/09 09:58:47;;;;;;;1.80;1.70;;;5.80;99.90;;;;;;5027251;28;20197;-66
2022/01/09 10:01:24;;;;;;;6.97;1.75;;;5.80;99.90;;;;;;5020333;28;20636;-66
2022/01/09 10:03:57;;;;;;;6.45;2.50;;;5.80;99.90;;;;;;5023423;28;20193;-67
2022/01/09 10:06:41;;;;;;;3.72;2.20;;;5.90;99.90;;;;;;5027193;28;20229;-66
2022/01/09 10:09:13;;;;;;;1.80;1.48;;;5.90;99.90;;;;;;5016925;28;20624;-69
2022/01/09 10:11:44;;;;;;;2.50;1.52;;;5.90;99.90;;;;;;5021404;28;20663;-66
2022/01/09 10:14:14;;;;;;;2.60;1.90;;;5.90;99.90;;;;;;5027733;28;20285;-67
2022/01/09 10:17:03;;;;;;;5.75;1.95;;;5.90;99.90;;;;;;5021779;28;20776;-67
2022/01/09 10:19:45;;;;;;;2.83;1.42;;;5.90;99.90;;;;;;5016836;28;20198;-68
2022/01/09 10:22:23;;;;;;;5.10;2.10;;;5.90;99.90;;;;;;5025486;28;20335;-68
2022/01/09 10:24:52;;;;;;;3.90;1.65;;;5.90;99.90;;;;;;5027655;28;20218;-68
2022/01/09 10:27:29;;;;;;;1.92;1.52;;;5.90;99.90;;;;;;5030094;28;20649;-67
2022/01/09 10:29:57;;;;;;;4.75;1.80;;;5.90;99.90;;;;;;5031198;28;20193;-67
2022/01/09 10:32:29;;;;;;;4.10;1.75;;;5.90;99.90;;;;;;5024813;28;20271;-66
2022/01/09 10:35:08;;;;;;;1.73;1.40;;;5.90;99.90;;;;;;5031142;28;20629;-67
2022/01/09 10:37:38;;;;;;;2.58;1.50;;;5.90;99.90;;;;;;5030683;28;20320;-68
2022/01/09 10:40:10;;;;;;;3.00;1.90;;;5.90;99.90;;;;;;5015048;28;20597;-67
2022/01/09 10:42:39;;;;;;;5.20;2.00;;;5.90;99.90;;;;;;5030566;28;20316;-66
2022/01/09 10:45:22;;;;;;;1.45;1.35;;;5.90;99.90;;;;;;5030723;28;20197;-66
2022/01/09 10:47:55;;;;;;;1.52;1.42;;;5.90;99.90;;;;;;5026179;28;20578;-68
2022/01/09 10:50:25;;;;;;;3.03;1.85;;;5.90;99.90;;;;;;5031612;28;20221;-67
2022/01/09 10:53:12;;;;;;;3.33;1.52;;;5.90;99.90;;;;;;5030053;28;20687;-67
2022/01/09 10:55:41;;;;;;;2.40;1.90;;;5.90;99.90;;;;;;5021193;28;20264;-66
2022/01/09 10:58:21;;;;;;;2.47;1.10;;;5.90;99.90;;;;;;5027930;28;20714;-67
2022/01/09 11:01:14;;;;;;;4.05;1.95;;;5.90;99.90;;;;;;5029497;28;20548;-65
2022/01/09 11:03:44;;;;;;;3.55;1.75;;;5.90;99.90;;;;;;5009822;28;20326;-67
2022/01/09 11:06:12;;;;;;;2.65;1.98;;;5.90;99.90;;;;;;5017554;28;20256;-66
2022/01/09 11:08:41;;;;;;;4.00;1.80;;;5.90;99.90;;;;;;5030346;28;20200;-67
2022/01/09 11:11:20;;;;;;;2.90;1.33;;;5.90;99.90;;;;;;5020595;28;20259;-66
2022/01/09 11:13:50;;;;;;;3.15;1.55;;;5.90;99.90;;;;;;5010633;28;20221;-66
2022/01/09 11:16:34;;;;;;;2.20;1.75;;;5.90;99.90;;;;;;5016097;28;20224;-67
2022/01/09 11:19:08;;;;;;;3.55;1.30;;;5.90;99.90;;;;;;5030158;28;20193;-68
2022/01/09 11:21:38;;;;;;;2.05;1.27;;;5.90;99.90;;;;;;5029934;28;20243;-65
2022/01/09 11:24:23;;;;;;;3.10;1.48;;;5.90;99.90;;;;;;5028640;28;20212;-66
2022/01/09 11:26:57;;;;;;;2.47;1.70;;;5.90;99.90;;;;;;5015908;28;20229;-67
2022/01/09 11:29:31;;;;;;;3.83;1.63;;;5.90;99.90;;;;;;5011241;28;20201;-67
2022/01/09 11:32:22;;;;;;;2.55;1.80;;;5.90;99.90;;;;;;5021207;28;20309;-66
2022/01/09 11:35:02;;;;;;;3.33;1.70;;;5.90;99.90;;;;;;5026055;28;20241;-67
2022/01/09 11:37:52;;;;;;;2.42;1.90;;;5.90;99.90;;;;;;5024958;28;20561;-67
2022/01/09 11:40:25;;;;;;;2.80;1.30;;;5.90;99.90;;;;;;5024650;28;20607;-67
2022/01/09 11:43:02;;;;;;;5.15;1.75;;;5.90;99.90;;;;;;5028942;28;20279;-66
2022/01/09 11:45:45;;;;;;;3.55;1.63;;;5.90;99.90;;;;;;5013015;28;20216;-67
2022/01/09 11:48:15;;;;;;;6.35;1.58;;;5.90;99.90;;;;;;5027422;28;20229;-66
2022/01/09 11:51:11;;;;;;;2.38;2.05;;;5.90;99.90;;;;;;5015383;28;20189;-68
2022/01/09 11:54:08;;;;;;;3.85;1.75;;;5.90;99.90;;;;;;5022679;28;20943;-68
2022/01/09 11:57:06;;;;;;;2.70;2.50;;;5.90;99.90;;;;;;5014059;28;20783;-67
2022/01/09 11:59:51;;;;;;;4.30;1.77;;;5.90;99.90;;;;;;5029048;28;20651;-65
2022/01/09 12:02:37;;;;;;;2.80;1.63;;;6.00;99.90;;;;;;5023396;28;20213;-67
2022/01/09 12:05:09;;;;;;;4.35;1.85;;;6.00;99.90;;;;;;5027069;28;20215;-66
2022/01/09 12:08:09;;;;;;;6.32;2.60;;;5.90;99.90;;;;;;5028170;28;20279;-67
2022/01/09 12:10:50;;;;;;;4.30;1.83;;;6.00;99.90;;;;;;5023057;28;20216;-67
2022/01/09 12:13:41;;;;;;;5.15;2.70;;;6.00;99.90;;;;;;5028873;28;20720;-67
2022/01/09 12:16:51;;;;;;;2.75;1.55;;;6.00;99.90;;;;;;5017686;28;20401;-66
2022/01/09 12:20:03;;;;;;;3.95;1.75;;;6.00;99.90;;;;;;5027202;28;20189;-66
2022/01/09 12:23:04;;;;;;;7.47;2.80;;;6.00;99.90;;;;;;5020665;28;20679;-66
2022/01/09 12:25:50;;;;;;;3.75;1.77;;;6.00;99.90;;;;;;5017579;28;20307;-68
2022/01/09 12:28:22;;;;;;;4.93;2.40;;;6.00;99.90;;;;;;5027511;28;20742;-66
2022/01/09 12:30:54;;;;;;;3.10;1.20;;;6.00;99.90;;;;;;5023609;28;20241;-67
2022/01/09 12:33:50;;;;;;;2.25;1.65;;;6.00;99.90;;;;;;5027617;28;20189;-68
2022/01/09 12:36:31;;;;;;;3.72;2.03;;;6.00;99.90;;;;;;5027632;28;20588;-66
2022/01/09 12:39:03;;;;;;;4.78;2.00;;;6.00;99.90;;;;;;5020717;28;20193;-67
2022/01/09 12:41:34;;;;;;;2.78;1.98;;;6.00;99.90;;;;;;5020706;28;20641;-66
2022/01/09 12:44:05;;;;;;;2.78;2.45;;;6.00;99.90;;;;;;5027934;28;20922;-66
2022/01/09 12:46:35;;;;;;;3.47;1.95;;;6.00;99.90;;;;;;5024047;28;20325;-66
2022/01/09 12:49:07;;;;;;;2.78;1.98;;;6.00;99.90;;;;;;5026694;28;20197;-67
2022/01/09 12:51:36;;;;;;;2.72;1.70;;;6.00;99.90;;;;;;5027955;28;20271;-67
2022/01/09 12:54:06;;;;;;;3.85;1.73;;;6.00;99.90;;;;;;5026999;28;20185;-65
2022/01/09 12:56:36;;;;;;;5.15;1.83;;;6.00;99.90;;;;;;5020735;28;20248;-66
2022/01/09 12:59:07;;;;;;;3.63;1.92;;;6.00;99.90;;;;;;5026336;28;20194;-67
2022/01/09 13:01:39;;;;;;;3.95;1.88;;;6.00;99.90;;;;;;5024389;28;20227;-67
2022/01/09 13:04:15;;;;;;;3.95;1.70;;;6.00;99.90;;;;;;5027897;28;20201;-67
2022/01/09 13:06:47;;;;;;;2.92;1.70;;;6.00;99.90;;;;;;5014446;28;20329;-65
2022/01/09 13:09:17;;;;;;;3.65;1.70;;;6.00;99.90;;;;;;5027766;28;20185;-66
2022/01/09 13:11:58;;;;;;;2.17;1.55;;;6.00;99.90;;;;;;5027517;28;20255;-65
2022/01/09 13:14:36;;;;;;;1.30;1.20;;;6.00;99.90;;;;;;5027801;28;20221;-65
2022/01/09 13:17:05;;;;;;;3.53;1.90;;;6.00;99.90;;;;;;5013083;28;20228;-67
2022/01/09 13:19:55;;;;;;;2.45;1.58;;;6.00;99.90;;;;;;5027817;28;20220;-67